Time;durP1;ratioP1;P1;durP2;ratioP2;P2;SDS_P1;SDS_P2;PMS_P1;PMS_P2;Temp;Humidity;BMP_temperature;BMP_pressure;BME280_temperature;BME280_humidity;BME280_pressure;Samples;Min_cycle;Max_cycle;Signal;HPM_P1;HPM_P2
2022/07/12 00:02:16;;;;;;;3.37;0.80;;;;;;;15.59;53.87;100199.53;4353908;32;34824;-77
2022/07/12 00:05:03;;;;;;;5.50;0.98;;;;;;;15.63;53.42;100194.19;4354515;32;34994;-77
2022/07/12 00:07:49;;;;;;;1.95;0.80;;;;;;;15.85;52.78;100185.66;4348545;32;35350;-76
2022/07/12 00:10:35;;;;;;;5.37;1.00;;;;;;;15.87;52.83;100199.13;4345406;32;34616;-76
2022/07/12 00:13:21;;;;;;;5.75;1.00;;;;;;;15.72;53.54;100198.53;4346812;32;34992;-75
2022/07/12 00:16:08;;;;;;;2.70;0.93;;;;;;;15.62;53.70;100198.88;4354019;32;35814;-76
2022/07/12 00:18:54;;;;;;;3.22;0.80;;;;;;;15.50;54.03;100198.75;4345098;32;34299;-77
2022/07/12 00:21:40;;;;;;;2.05;0.90;;;;;;;15.51;53.64;100197.59;4353012;32;34465;-76
2022/07/12 00:24:26;;;;;;;2.90;0.90;;;;;;;15.35;54.20;100197.34;4354427;32;37053;-76
2022/07/12 00:27:13;;;;;;;2.60;1.00;;;;;;;15.49;53.64;100197.16;4353309;32;35662;-76
2022/07/12 00:29:59;;;;;;;3.03;1.12;;;;;;;15.48;53.60;100198.28;4352309;32;34285;-76
2022/07/12 00:32:47;;;;;;;2.53;0.95;;;;;;;15.52;53.55;100193.72;4352864;32;34164;-76
2022/07/12 00:35:34;;;;;;;3.05;0.80;;;;;;;15.39;53.77;100189.22;4353594;32;34977;-77
2022/07/12 00:38:21;;;;;;;4.35;1.30;;;;;;;14.88;55.51;100197.28;4356290;32;35818;-76
2022/07/12 00:41:07;;;;;;;3.90;0.62;;;;;;;14.14;57.77;100206.44;4345892;32;35269;-77
2022/07/12 00:43:54;;;;;;;5.00;0.98;;;;;;;14.42;57.22;100203.41;4352476;32;34785;-77
2022/07/12 00:46:40;;;;;;;4.18;0.95;;;;;;;14.52;56.42;100205.91;4351437;32;35929;-76
2022/07/12 00:49:27;;;;;;;4.18;0.88;;;;;;;14.95;54.97;100203.13;4355589;32;35691;-76
2022/07/12 00:52:13;;;;;;;2.10;0.80;;;;;;;14.81;55.07;100208.00;4341745;32;34290;-76
2022/07/12 00:54:59;;;;;;;4.45;0.90;;;;;;;14.81;55.12;100208.00;4357683;32;34739;-76
2022/07/12 00:57:47;;;;;;;4.60;0.93;;;;;;;14.42;55.73;100208.94;4351040;32;36012;-76
2022/07/12 01:00:33;;;;;;;5.07;0.93;;;;;;;14.58;56.21;100210.91;4345470;32;35792;-76
2022/07/12 01:03:19;;;;;;;2.25;0.80;;;;;;;14.59;55.98;100204.25;4356308;32;35319;-76
2022/07/12 01:06:07;;;;;;;3.20;0.80;;;;;;;14.04;57.62;100217.78;4360853;32;35276;-76
2022/07/12 01:08:53;;;;;;;3.20;0.80;;;;;;;14.40;56.21;100214.78;4337473;32;34959;-76
2022/07/12 01:11:40;;;;;;;5.15;1.00;;;;;;;13.93;58.34;100207.03;4343622;32;34931;-76
2022/07/12 01:14:27;;;;;;;6.15;1.60;;;;;;;14.23;56.89;100215.56;4342201;32;34403;-76
2022/07/12 01:17:14;;;;;;;2.92;0.80;;;;;;;14.05;57.41;100211.94;4346528;32;34336;-77
2022/07/12 01:20:00;;;;;;;1.98;0.90;;;;;;;14.55;55.83;100210.75;4356749;32;33833;-76
2022/07/12 01:22:52;;;;;;;1.35;0.80;;;;;;;14.08;57.29;100210.47;4349886;32;33645;-76
2022/07/12 01:25:39;;;;;;;4.57;1.15;;;;;;;13.62;58.83;100200.78;4343784;32;34302;-76
2022/07/12 01:28:26;;;;;;;3.35;1.08;;;;;;;13.57;59.97;100201.72;4344179;32;34681;-76
2022/07/12 01:31:12;;;;;;;8.40;1.20;;;;;;;13.82;58.88;100193.88;4351209;32;34945;-76
2022/07/12 01:33:59;;;;;;;5.78;1.50;;;;;;;13.81;59.45;100203.28;4359030;32;34902;-77
2022/07/12 01:36:46;;;;;;;5.18;1.23;;;;;;;13.70;59.58;100197.25;4351782;32;34179;-76
2022/07/12 01:39:32;;;;;;;5.30;1.50;;;;;;;14.16;58.63;100198.69;4360288;32;35621;-75
2022/07/12 01:42:20;;;;;;;5.82;1.48;;;;;;;14.25;57.74;100204.19;4360392;32;36070;-76
2022/07/12 01:45:07;;;;;;;9.57;2.15;;;;;;;14.36;57.60;100200.81;4343294;32;34981;-76
2022/07/12 01:47:54;;;;;;;10.02;1.98;;;;;;;14.27;57.51;100205.50;4343061;32;34473;-76
2022/07/12 01:50:40;;;;;;;8.68;1.48;;;;;;;14.55;56.75;100185.94;4359796;32;34980;-76
2022/07/12 01:53:27;;;;;;;5.20;1.33;;;;;;;15.01;55.77;100193.53;4345153;32;34854;-76
2022/07/12 01:56:14;;;;;;;7.82;1.65;;;;;;;14.89;56.16;100187.06;4350266;32;35660;-76
2022/07/12 01:59:00;;;;;;;5.85;1.55;;;;;;;15.04;56.06;100192.06;4361012;32;34358;-76
2022/07/12 02:01:48;;;;;;;6.50;1.80;;;;;;;15.10;55.67;100193.50;4358882;32;34596;-76
2022/07/12 02:04:35;;;;;;;9.43;1.90;;;;;;;14.92;57.10;100191.94;4343115;32;36274;-76
2022/07/12 02:07:23;;;;;;;10.43;1.70;;;;;;;14.82;57.49;100188.34;4352658;32;34869;-77
2022/07/12 02:10:10;;;;;;;6.25;1.95;;;;;;;14.18;59.67;100185.41;4355341;32;34021;-76
2022/07/12 02:12:59;;;;;;;5.72;1.85;;;;;;;14.27;59.80;100191.72;4348235;32;35445;-76
2022/07/12 02:15:45;;;;;;;6.65;1.50;;;;;;;14.35;59.49;100193.69;4352644;32;35954;-77
2022/07/12 02:18:34;;;;;;;7.65;1.77;;;;;;;14.49;58.61;100189.97;4346526;32;34997;-77
2022/07/12 02:21:21;;;;;;;8.38;2.00;;;;;;;14.26;58.87;100189.28;4347022;32;35222;-76
2022/07/12 02:24:08;;;;;;;8.73;1.75;;;;;;;13.67;60.81;100192.38;4355075;32;35534;-77
2022/07/12 02:26:54;;;;;;;5.68;1.70;;;;;;;14.42;59.00;100195.16;4347345;32;35916;-76
2022/07/12 02:29:41;;;;;;;4.82;1.70;;;;;;;14.15;59.96;100197.06;4355780;32;34913;-77
2022/07/12 02:32:28;;;;;;;7.05;1.60;;;;;;;14.29;59.31;100194.16;4355216;32;35236;-77
2022/07/12 02:35:14;;;;;;;4.55;1.60;;;;;;;14.19;60.10;100198.03;4358718;32;33715;-76
2022/07/12 02:38:01;;;;;;;4.97;1.40;;;;;;;14.16;60.05;100191.22;4351632;32;34945;-76
2022/07/12 02:40:53;;;;;;;6.03;1.87;;;;;;;13.98;61.08;100195.06;4356984;32;34555;-76
2022/07/12 02:43:39;;;;;;;7.70;2.72;;;;;;;13.92;61.65;100191.66;4354453;32;34418;-77
2022/07/12 02:46:26;;;;;;;5.00;1.62;;;;;;;13.85;61.58;100198.75;4349464;32;34321;-76
2022/07/12 02:49:13;;;;;;;7.35;1.30;;;;;;;13.74;62.24;100203.72;4354509;32;35008;-77
2022/07/12 02:51:59;;;;;;;5.75;1.60;;;;;;;13.62;62.75;100204.34;4353655;32;35024;-76
2022/07/12 02:54:46;;;;;;;2.58;1.40;;;;;;;13.84;61.83;100200.69;4350433;32;33942;-77
2022/07/12 02:57:32;;;;;;;8.68;2.22;;;;;;;14.06;60.62;100213.56;4355230;32;35645;-76
2022/07/12 03:00:19;;;;;;;5.37;1.50;;;;;;;14.12;60.67;100208.72;4352969;32;34031;-76
2022/07/12 03:03:07;;;;;;;3.80;1.40;;;;;;;14.10;61.09;100210.97;4342171;32;35768;-77
2022/07/12 03:05:53;;;;;;;8.18;1.60;;;;;;;13.83;62.29;100207.34;4361136;32;34463;-76
2022/07/12 03:08:40;;;;;;;5.60;1.50;;;;;;;14.01;61.61;100215.66;4347091;32;34645;-76
2022/07/12 03:11:26;;;;;;;5.40;1.50;;;;;;;13.94;61.77;100214.19;4362652;32;35835;-77
2022/07/12 03:14:13;;;;;;;9.23;1.50;;;;;;;13.82;62.35;100200.19;4362969;32;34991;-77
2022/07/12 03:16:59;;;;;;;5.05;1.60;;;;;;;13.82;62.62;100208.47;4362658;32;34410;-77
2022/07/12 03:19:46;;;;;;;6.32;1.40;;;;;;;13.73;63.11;100210.37;4362732;32;34690;-77
2022/07/12 03:22:32;;;;;;;4.40;1.17;;;;;;;13.55;64.84;100211.41;4362750;32;35085;-77
2022/07/12 03:25:19;;;;;;;4.97;1.15;;;;;;;13.49;65.20;100214.34;4350372;32;34960;-77
2022/07/12 03:28:05;;;;;;;2.97;0.90;;;;;;;13.52;65.14;100207.38;4353595;32;34212;-77
2022/07/12 03:30:51;;;;;;;4.03;1.40;;;;;;;13.78;64.61;100213.00;4361146;32;35673;-77
2022/07/12 03:33:38;;;;;;;5.85;1.95;;;;;;;14.06;62.78;100215.50;4344096;32;34895;-77
2022/07/12 03:36:24;;;;;;;4.10;1.37;;;;;;;13.97;62.92;100220.97;4361057;32;35724;-77
2022/07/12 03:39:10;;;;;;;6.10;1.50;;;;;;;14.06;62.82;100226.50;4346322;32;35317;-76
2022/07/12 03:41:57;;;;;;;4.85;1.42;;;;;;;13.99;62.83;100224.25;4351464;32;35293;-76
2022/07/12 03:44:43;;;;;;;5.43;1.95;;;;;;;13.98;62.63;100225.38;4360916;32;35009;-77
2022/07/12 03:47:31;;;;;;;5.15;1.70;;;;;;;13.85;63.58;100229.06;4361104;32;34902;-76
2022/07/12 03:50:17;;;;;;;6.03;1.27;;;;;;;13.84;64.24;100225.50;4346820;32;34362;-76
2022/07/12 03:53:04;;;;;;;7.18;1.12;;;;;;;14.27;62.24;100224.00;4361714;32;34732;-77
2022/07/12 03:55:50;;;;;;;3.67;0.90;;;;;;;14.26;62.04;100225.94;4350293;32;34960;-76
2022/07/12 03:58:36;;;;;;;4.90;1.17;;;;;;;14.50;60.87;100225.47;4360206;32;34984;-77
2022/07/12 04:01:22;;;;;;;4.00;1.50;;;;;;;14.71;60.28;100219.34;4360406;32;35349;-77
2022/07/12 04:04:09;;;;;;;2.47;0.80;;;;;;;14.04;62.88;100231.56;4359445;32;34772;-77
2022/07/12 04:06:55;;;;;;;4.95;0.80;;;;;;;14.20;62.05;100232.72;4352069;32;36844;-77
2022/07/12 04:09:42;;;;;;;3.83;1.15;;;;;;;14.03;62.73;100233.50;4355549;32;34956;-76
2022/07/12 04:12:28;;;;;;;5.45;1.20;;;;;;;13.30;65.94;100232.19;4351109;32;34391;-76
2022/07/12 04:15:14;;;;;;;5.03;1.12;;;;;;;13.39;66.09;100238.56;4353640;32;34732;-77
2022/07/12 04:18:01;;;;;;;3.53;0.70;;;;;;;13.39;65.37;100224.78;4356805;32;35923;-76
2022/07/12 04:20:47;;;;;;;2.30;0.70;;;;;;;13.54;65.91;100224.38;4352646;32;34999;-76
2022/07/12 04:23:33;;;;;;;2.65;0.98;;;;;;;13.53;67.20;100230.22;4351234;32;34295;-76
2022/07/12 04:26:20;;;;;;;2.50;0.88;;;;;;;13.60;66.06;100230.56;4349667;32;34596;-76
2022/07/12 04:29:06;;;;;;;5.62;0.88;;;;;;;14.06;64.47;100237.53;4352697;32;35067;-77
2022/07/12 04:31:53;;;;;;;1.70;0.95;;;;;;;14.11;63.98;100235.44;4354601;32;34939;-77
2022/07/12 04:34:39;;;;;;;5.37;0.90;;;;;;;13.78;65.18;100237.78;4353400;32;35351;-77
2022/07/12 04:37:26;;;;;;;3.58;0.62;;;;;;;14.40;63.20;100231.31;4353760;32;36189;-77
2022/07/12 04:40:12;;;;;;;3.25;0.90;;;;;;;14.25;63.81;100235.31;4354210;32;35085;-77
2022/07/12 04:42:59;;;;;;;4.45;0.80;;;;;;;15.10;61.84;100231.34;4354607;32;35746;-78
2022/07/12 04:45:45;;;;;;;3.95;0.85;;;;;;;15.13;59.69;100242.53;4357413;32;34411;-77
2022/07/12 04:48:31;;;;;;;3.83;0.80;;;;;;;14.50;63.00;100235.69;4352985;32;33777;-77
2022/07/12 04:51:18;;;;;;;3.17;0.70;;;;;;;14.76;62.37;100233.78;4354715;32;34981;-77
2022/07/12 04:54:04;;;;;;;3.28;0.70;;;;;;;15.07;60.45;100241.09;4352961;32;35806;-78
2022/07/12 04:56:51;;;;;;;1.37;0.60;;;;;;;15.15;60.11;100237.50;4355747;32;33984;-78
2022/07/12 04:59:37;;;;;;;2.65;0.77;;;;;;;14.79;61.83;100238.66;4351841;32;34702;-81
2022/07/12 05:02:23;;;;;;;1.95;0.60;;;;;;;14.97;61.27;100238.66;4352533;32;34689;-79
2022/07/12 05:05:10;;;;;;;2.75;0.88;;;;;;;14.96;60.75;100242.56;4347898;32;35834;-79
2022/07/12 05:07:56;;;;;;;3.28;0.80;;;;;;;15.16;59.88;100241.88;4346848;32;35439;-81
2022/07/12 05:10:43;;;;;;;1.33;0.68;;;;;;;14.69;61.30;100244.50;4356248;32;36051;-77
2022/07/12 05:13:29;;;;;;;2.20;0.70;;;;;;;15.16;59.95;100238.31;4351270;32;35072;-78
2022/07/12 05:16:15;;;;;;;1.37;0.60;;;;;;;15.05;59.67;100240.59;4356276;32;34884;-78
2022/07/12 05:19:01;;;;;;;3.47;0.80;;;;;;;15.39;59.02;100238.91;4353345;32;34162;-79
2022/07/12 05:21:48;;;;;;;2.95;1.00;;;;;;;15.73;58.56;100235.25;4353345;32;33638;-79
2022/07/12 05:24:34;;;;;;;6.72;0.75;;;;;;;15.59;59.78;100251.22;4354156;32;36006;-79
2022/07/12 05:27:20;;;;;;;2.45;0.73;;;;;;;16.13;57.64;100244.00;4353657;32;34999;-78
2022/07/12 05:30:07;;;;;;;5.47;1.00;;;;;;;15.96;56.74;100252.41;4348135;32;34165;-78
2022/07/12 05:32:53;;;;;;;2.80;0.80;;;;;;;15.88;57.21;100239.41;4351499;32;34796;-79
2022/07/12 05:35:40;;;;;;;3.47;0.70;;;;;;;15.83;57.83;100248.72;4354883;32;35219;-79
2022/07/12 05:38:27;;;;;;;4.32;0.62;;;;;;;16.19;55.76;100237.19;4353970;32;34550;-80
2022/07/12 05:41:13;;;;;;;2.90;0.80;;;;;;;15.82;57.89;100246.28;4354205;32;33855;-79
2022/07/12 05:44:00;;;;;;;4.25;1.30;;;;;;;16.23;56.84;100247.56;4354605;32;35805;-78
2022/07/12 05:46:46;;;;;;;6.68;1.08;;;;;;;16.32;57.23;100249.12;4351366;32;35029;-79
2022/07/12 05:49:33;;;;;;;5.43;0.95;;;;;;;16.72;55.37;100245.91;4352627;32;34806;-81
2022/07/12 05:55:25;;;;;;;4.95;1.48;;;;;;;16.94;54.93;100247.56;4350403;32;34864;-77
2022/07/12 05:58:11;;;;;;;4.07;0.80;;;;;;;17.43;53.43;100244.16;4353542;32;34853;-79
2022/07/12 06:00:57;;;;;;;1.85;0.73;;;;;;;18.08;52.53;100245.19;4341752;32;34515;-77
2022/07/12 06:03:44;;;;;;;3.17;0.90;;;;;;;17.48;52.80;100239.22;4355513;32;34359;-81
2022/07/12 06:06:31;;;;;;;3.47;0.60;;;;;;;18.03;51.02;100241.84;4349499;32;35678;-81
2022/07/12 06:09:17;;;;;;;2.05;0.50;;;;;;;18.33;50.16;100240.47;4341355;32;34945;-82
2022/07/12 06:12:04;;;;;;;3.58;0.90;;;;;;;18.38;49.50;100240.19;4348668;32;34939;-81
2022/07/12 06:14:50;;;;;;;2.78;0.57;;;;;;;17.74;51.19;100232.56;4353424;32;34561;-83
2022/07/12 06:17:36;;;;;;;1.37;0.40;;;;;;;18.37;49.52;100223.91;4349447;32;34455;-79
2022/07/12 06:20:23;;;;;;;1.98;0.55;;;;;;;18.37;49.03;100224.72;4351818;32;36104;-79
2022/07/12 06:23:09;;;;;;;2.62;0.60;;;;;;;18.78;48.07;100227.53;4341859;32;35300;-78
2022/07/12 06:25:55;;;;;;;1.85;0.50;;;;;;;18.57;48.34;100225.72;4355398;32;35393;-80
2022/07/12 06:28:42;;;;;;;1.87;0.55;;;;;;;19.12;48.71;100230.87;4349182;32;34471;-78
2022/07/12 06:31:28;;;;;;;1.70;0.45;;;;;;;18.81;47.94;100227.66;4350657;32;36369;-77
2022/07/12 06:34:20;;;;;;;3.17;0.80;;;;;;;19.03;47.15;100228.25;4350183;32;34347;-84
2022/07/12 06:37:08;;;;;;;7.82;0.70;;;;;;;19.16;46.15;100227.06;4354654;32;34118;-82
2022/07/12 06:39:54;;;;;;;3.72;0.52;;;;;;;19.24;46.65;100242.75;4350740;32;34777;-79
2022/07/12 06:42:41;;;;;;;2.55;0.60;;;;;;;19.09;46.92;100235.97;4353467;32;36083;-81
2022/07/12 06:45:27;;;;;;;1.92;0.65;;;;;;;19.04;48.03;100240.97;4354837;32;34836;-80
2022/07/12 06:48:13;;;;;;;4.37;2.25;;;;;;;18.38;48.83;100231.88;4353847;32;35344;-80
2022/07/12 06:50:59;;;;;;;1.90;0.60;;;;;;;18.71;48.19;100233.66;4338460;32;35268;-80
2022/07/12 06:53:46;;;;;;;3.53;0.80;;;;;;;18.33;49.51;100228.56;4350641;32;34791;-81
2022/07/12 06:56:32;;;;;;;6.60;0.70;;;;;;;18.88;48.04;100236.19;4345989;32;34830;-79
2022/07/12 06:59:18;;;;;;;2.92;0.80;;;;;;;18.45;48.84;100225.75;4350157;32;34005;-81
2022/07/12 07:02:05;;;;;;;3.45;0.73;;;;;;;18.63;47.92;100235.41;4356308;32;34660;-80
2022/07/12 07:04:51;;;;;;;4.68;0.73;;;;;;;19.16;47.65;100237.34;4352441;32;35974;-79
2022/07/12 07:07:37;;;;;;;2.12;0.50;;;;;;;19.09;46.52;100226.84;4363852;32;34663;-79
2022/07/12 07:10:24;;;;;;;2.72;0.60;;;;;;;19.59;45.90;100242.09;4360932;32;34059;-78
2022/07/12 07:13:10;;;;;;;2.45;0.70;;;;;;;19.34;45.67;100238.66;4358496;32;35659;-84
2022/07/12 07:15:56;;;;;;;6.37;0.60;;;;;;;19.38;45.82;100224.84;4359096;32;35078;-81
2022/07/12 07:18:43;;;;;;;1.48;0.50;;;;;;;19.73;45.10;100234.16;4349377;32;35749;-81
2022/07/12 07:21:29;;;;;;;3.33;0.85;;;;;;;19.92;44.56;100216.75;4360811;32;35291;-82
2022/07/12 07:24:16;;;;;;;2.20;0.82;;;;;;;19.96;43.56;100225.19;4359618;32;34767;-80
2022/07/12 07:27:02;;;;;;;2.33;0.40;;;;;;;20.18;43.25;100218.16;4359141;32;34977;-81
2022/07/12 07:32:53;;;;;;;3.08;0.60;;;;;;;20.14;44.10;100229.19;4356945;32;33948;-79
2022/07/12 07:35:43;;;;;;;3.25;0.75;;;;;;;19.83;44.98;100226.44;4357610;32;35581;-80
2022/07/12 07:38:29;;;;;;;4.35;0.52;;;;;;;19.74;44.13;100223.84;4358886;32;35079;-80
2022/07/12 07:41:16;;;;;;;2.45;0.50;;;;;;;20.13;43.31;100224.81;4348659;32;34910;-79
2022/07/12 07:44:03;;;;;;;3.60;0.60;;;;;;;20.17;43.55;100220.13;4360729;32;35338;-79
2022/07/12 07:46:49;;;;;;;1.87;0.70;;;;;;;20.79;43.21;100223.09;4357999;32;34761;-83
2022/07/12 07:49:36;;;;;;;5.03;1.20;;;;;;;20.37;42.38;100228.50;4344390;32;34103;-80
2022/07/12 07:52:30;;;;;;;2.22;0.70;;;;;;;20.92;41.95;100218.22;4359897;32;34855;-80
2022/07/12 07:55:16;;;;;;;2.42;0.80;;;;;;;20.76;41.84;100228.62;4356805;32;34360;-79
2022/07/12 07:58:03;;;;;;;3.05;0.52;;;;;;;20.56;42.43;100214.66;4359898;32;34617;-79
2022/07/12 08:00:50;;;;;;;1.95;0.65;;;;;;;20.63;43.03;100214.00;4340869;32;34929;-82
2022/07/12 08:03:37;;;;;;;6.57;0.80;;;;;;;20.47;42.85;100227.16;4345406;32;35460;-79
2022/07/12 08:06:23;;;;;;;3.42;0.73;;;;;;;20.52;43.42;100229.63;4358115;32;34278;-77
2022/07/12 08:09:09;;;;;;;1.80;0.70;;;;;;;20.69;42.15;100228.44;4358280;32;34323;-79
2022/07/12 08:11:58;;;;;;;4.68;0.70;;;;;;;20.96;41.70;100221.06;4353758;32;36159;-77
2022/07/12 08:14:44;;;;;;;5.25;0.90;;;;;;;21.75;40.96;100218.59;4357982;32;35822;-79
2022/07/12 08:17:30;;;;;;;1.40;0.60;;;;;;;20.83;42.30;100228.75;4356334;32;35345;-79
2022/07/12 08:20:17;;;;;;;4.45;0.98;;;;;;;21.47;41.08;100215.31;4355155;32;34770;-78
2022/07/12 08:23:24;;;;;;;5.22;1.05;;;;;;;21.17;40.62;100220.69;4357473;32;33880;-79
2022/07/12 08:26:11;;;;;;;3.75;0.80;;;;;;;21.49;41.40;100219.34;4358204;32;35047;-80
2022/07/12 08:28:57;;;;;;;3.05;0.90;;;;;;;21.14;41.81;100232.56;4337104;32;34359;-78
2022/07/12 08:31:45;;;;;;;3.67;0.90;;;;;;;20.57;43.57;100235.75;4358286;32;34971;-79
2022/07/12 08:34:31;;;;;;;5.03;0.88;;;;;;;20.10;43.97;100242.22;4345049;32;35067;-79
2022/07/12 08:37:18;;;;;;;7.05;1.20;;;;;;;20.76;43.54;100228.62;4357564;32;35819;-80
2022/07/12 08:40:05;;;;;;;6.75;1.42;;;;;;;21.03;42.28;100235.12;4358013;32;35260;-79
2022/07/12 08:42:52;;;;;;;5.10;1.95;;;;;;;21.01;41.01;100224.38;4357406;32;35615;-77
2022/07/12 08:45:40;;;;;;;4.57;1.10;;;;;;;20.84;41.33;100230.37;4359547;32;35919;-78
2022/07/12 08:48:26;;;;;;;2.28;0.75;;;;;;;21.59;41.16;100219.87;4347874;32;34971;-79
2022/07/12 08:51:18;;;;;;;4.18;1.23;;;;;;;21.84;40.06;100217.53;4345980;32;34043;-80
2022/07/12 08:54:06;;;;;;;4.35;1.37;;;;;;;21.95;39.68;100210.94;4358278;32;34679;-79
2022/07/12 08:56:57;;;;;;;4.75;0.82;;;;;;;22.17;38.81;100205.69;4357887;32;34968;-80
2022/07/12 08:59:47;;;;;;;5.15;0.82;;;;;;;21.98;39.35;100215.78;4343510;32;35737;-79
2022/07/12 09:02:46;;;;;;;5.03;0.77;;;;;;;21.94;39.68;100202.94;4345615;32;35003;-81
2022/07/12 09:05:34;;;;;;;3.05;0.73;;;;;;;22.07;38.82;100212.72;4344731;32;34216;-79
2022/07/12 09:08:26;;;;;;;2.45;0.98;;;;;;;22.05;37.55;100214.28;4353581;32;35049;-76
2022/07/12 09:11:15;;;;;;;2.53;0.60;;;;;;;22.01;37.76;100209.44;4351159;32;35752;-80
2022/07/12 09:14:02;;;;;;;2.58;0.52;;;;;;;22.27;37.45;100221.03;4346060;32;34355;-81
2022/07/12 09:17:09;;;;;;;1.83;0.40;;;;;;;22.43;37.22;100208.50;4357348;32;35612;-81
2022/07/12 09:19:56;;;;;;;2.17;0.52;;;;;;;23.09;35.46;100197.00;4339820;32;34973;-81
2022/07/12 09:22:57;;;;;;;1.85;0.60;;;;;;;22.83;36.66;100207.03;4355111;32;35731;-80
2022/07/12 09:25:45;;;;;;;1.37;0.65;;;;;;;22.78;37.04;100207.38;4356766;32;34460;-82
2022/07/12 09:28:31;;;;;;;1.30;0.68;;;;;;;23.02;35.92;100211.66;4347160;32;35944;-81
2022/07/12 09:31:18;;;;;;;3.40;0.60;;;;;;;21.93;37.39;100193.78;4352306;32;35611;-81
2022/07/12 09:37:10;;;;;;;2.40;0.50;;;;;;;22.60;36.69;100190.41;4351693;32;33986;-82
2022/07/12 09:39:57;;;;;;;2.60;0.50;;;;;;;23.20;35.82;100197.91;4340199;32;34362;-80
2022/07/12 09:42:43;;;;;;;2.40;0.70;;;;;;;22.57;35.97;100195.91;4334171;32;34943;-85
2022/07/12 09:45:29;;;;;;;3.83;0.60;;;;;;;22.33;35.98;100194.41;4350535;32;35085;-81
2022/07/12 09:48:16;;;;;;;2.03;0.43;;;;;;;23.29;34.64;100198.41;4344091;32;35817;-80
2022/07/12 09:51:04;;;;;;;3.33;0.70;;;;;;;23.88;33.50;100184.59;4342778;32;34858;-83
2022/07/12 09:53:51;;;;;;;3.22;0.65;;;;;;;23.29;34.06;100198.41;4348157;32;34603;-81
2022/07/12 09:56:41;;;;;;;6.10;0.70;;;;;;;22.61;35.37;100189.19;4344953;32;35466;-80
2022/07/12 09:59:28;;;;;;;2.85;0.62;;;;;;;22.55;35.40;100201.88;4337664;32;35571;-82
2022/07/12 10:02:15;;;;;;;2.37;0.70;;;;;;;22.65;35.39;100186.44;4352008;32;34685;-81
2022/07/12 10:05:04;;;;;;;3.42;1.00;;;;;;;22.92;35.18;100191.97;4337097;33;35045;-83
2022/07/12 10:07:51;;;;;;;2.00;0.60;;;;;;;22.93;34.64;100190.78;4332379;33;34895;-81
2022/07/12 10:10:38;;;;;;;3.53;0.60;;;;;;;23.30;33.68;100182.41;4332280;32;34513;-83
2022/07/12 10:13:25;;;;;;;4.87;0.60;;;;;;;22.89;34.21;100197.13;4328866;32;35530;-82
2022/07/12 10:16:13;;;;;;;1.83;0.60;;;;;;;22.71;35.07;100193.28;4328993;33;35875;-82
2022/07/12 10:19:22;;;;;;;2.45;0.70;;;;;;;23.27;34.19;100195.19;4336784;32;34567;-81
2022/07/12 10:22:20;;;;;;;2.83;0.50;;;;;;;23.42;33.79;100189.72;4346102;32;33973;-80
2022/07/12 10:25:33;;;;;;;1.33;0.50;;;;;;;23.97;32.72;100187.84;4342159;32;34420;-80
2022/07/12 10:28:19;;;;;;;3.97;0.75;;;;;;;23.55;33.42;100172.28;4343833;33;36198;-81
2022/07/12 10:31:06;;;;;;;2.37;0.55;;;;;;;23.88;31.85;100166.97;4332062;32;36227;-83
2022/07/12 10:34:12;;;;;;;1.87;0.50;;;;;;;23.14;31.83;100182.69;4331371;33;33893;-81
2022/07/12 10:36:58;;;;;;;5.10;0.50;;;;;;;23.13;32.38;100183.84;4345884;32;33322;-78
2022/07/12 10:40:21;;;;;;;6.12;0.75;;;;;;;23.64;31.21;100163.56;4341451;33;35968;-81
2022/07/12 10:43:10;;;;;;;1.45;0.68;;;;;;;23.21;32.66;100162.37;4343297;33;35578;-83
2022/07/12 10:46:04;;;;;;;2.62;0.70;;;;;;;22.90;33.50;100165.19;4345393;33;35456;-83
2022/07/12 10:48:51;;;;;;;2.85;0.60;;;;;;;24.19;33.71;100160.81;4334298;33;34707;-80
2022/07/12 10:51:38;;;;;;;2.42;0.80;;;;;;;22.90;33.57;100176.37;4344314;33;36119;-82
2022/07/12 10:54:24;;;;;;;4.78;0.77;;;;;;;22.30;35.69;100201.53;4325671;33;35727;-82
2022/07/12 10:57:10;;;;;;;11.95;1.60;;;;;;;20.40;46.03;100247.28;4339819;33;35148;-81
2022/07/12 10:59:57;;;;;;;3.00;0.85;;;;;;;17.51;65.70;100254.34;4331677;33;35630;-78
2022/07/12 11:02:44;;;;;;;4.32;1.35;;;;;;;18.31;56.47;100230.87;4341088;33;36012;-78
2022/07/12 11:05:30;;;;;;;3.10;0.85;;;;;;;19.31;61.51;100234.59;4347464;32;34973;-78
2022/07/12 11:08:17;;;;;;;1.85;0.60;;;;;;;20.11;64.28;100213.22;4348302;32;34451;-79
2022/07/12 11:11:04;;;;;;;3.75;1.10;;;;;;;20.69;62.46;100222.88;4347035;32;34230;-80
2022/07/12 11:13:51;;;;;;;3.08;0.68;;;;;;;21.22;63.54;100209.22;4348698;32;35080;-80
2022/07/12 11:16:44;;;;;;;5.45;1.00;;;;;;;22.02;54.09;100208.25;4340874;32;35811;-81
2022/07/12 11:19:33;;;;;;;1.55;0.80;;;;;;;23.07;55.63;100202.94;4343596;32;35346;-81
2022/07/12 11:22:25;;;;;;;2.95;0.80;;;;;;;23.27;52.46;100194.38;4347810;32;35619;-82
2022/07/12 11:25:12;;;;;;;4.85;1.20;;;;;;;23.58;49.99;100190.28;4349913;32;34627;-82
2022/07/12 11:27:59;;;;;;;4.55;0.98;;;;;;;23.61;60.41;100189.50;4343181;32;34543;-81
2022/07/12 11:30:52;;;;;;;3.60;0.62;;;;;;;23.53;50.92;100185.03;4347705;32;35377;-81
2022/07/12 11:33:44;;;;;;;3.12;0.80;;;;;;;22.71;44.39;100167.34;4355131;32;35322;-83
2022/07/12 11:36:32;;;;;;;3.00;0.70;;;;;;;23.15;45.15;100164.72;4352936;32;34730;-82
2022/07/12 11:39:33;;;;;;;1.80;0.60;;;;;;;23.43;46.95;100174.56;4343323;32;34608;-82
2022/07/12 11:42:20;;;;;;;2.05;0.60;;;;;;;22.22;45.41;100166.31;4348329;32;34201;-81
2022/07/12 11:45:07;;;;;;;1.65;0.60;;;;;;;22.27;43.34;100171.59;4344477;32;32561;-82
2022/07/12 11:47:54;;;;;;;3.08;0.60;;;;;;;22.50;40.63;100163.13;4342874;32;35435;-82
2022/07/12 11:50:44;;;;;;;1.62;0.68;;;;;;;22.62;40.52;100143.31;4341747;32;34776;-83
2022/07/12 11:53:32;;;;;;;2.42;0.50;;;;;;;22.85;39.92;100150.75;4339393;32;35346;-81
2022/07/12 11:56:29;;;;;;;4.70;0.77;;;;;;;23.60;39.56;100145.16;4355813;32;34162;-82
2022/07/12 11:59:22;;;;;;;2.35;0.80;;;;;;;23.48;37.89;100132.25;4349418;32;34714;-81
2022/07/12 12:02:11;;;;;;;4.20;0.50;;;;;;;23.91;35.62;100138.22;4346399;32;34466;-81
2022/07/12 12:04:57;;;;;;;2.12;0.50;;;;;;;23.65;33.36;100136.38;4347419;32;35324;-83
2022/07/12 12:07:44;;;;;;;5.65;0.85;;;;;;;23.78;34.02;100132.94;4347668;32;34816;-80
2022/07/12 12:10:30;;;;;;;5.30;0.60;;;;;;;24.10;34.83;100123.13;4351821;32;35941;-81
2022/07/12 12:13:17;;;;;;;2.28;0.47;;;;;;;24.26;32.55;100123.62;4344342;32;35564;-80
2022/07/12 12:16:05;;;;;;;6.05;0.70;;;;;;;24.41;33.76;100127.28;4335924;32;34227;-81
2022/07/12 12:18:51;;;;;;;2.95;0.50;;;;;;;23.94;33.53;100143.84;4350132;32;34700;-81
2022/07/12 12:21:38;;;;;;;2.58;0.50;;;;;;;23.93;33.83;100128.22;4347419;32;32847;-80
2022/07/12 12:24:24;;;;;;;2.83;0.50;;;;;;;23.63;34.86;100127.59;4344021;32;35757;-80
2022/07/12 12:27:23;;;;;;;3.00;0.52;;;;;;;23.55;33.59;100140.72;4354800;32;35181;-76
2022/07/12 12:30:09;;;;;;;3.42;0.50;;;;;;;23.67;32.20;100134.81;4348790;32;34637;-77
2022/07/12 12:32:58;;;;;;;3.08;0.60;;;;;;;23.67;31.75;100140.41;4346341;32;34692;-77
2022/07/12 12:35:43;;;;;;;1.75;0.50;;;;;;;22.64;33.61;100135.37;4352037;32;35103;-79
2022/07/12 12:38:30;;;;;;;2.10;0.43;;;;;;;22.37;34.89;100151.41;4345496;32;34300;-77
2022/07/12 12:41:17;;;;;;;1.80;0.50;;;;;;;22.01;35.69;100142.47;4342247;32;34682;-76
2022/07/12 12:44:05;;;;;;;1.45;0.50;;;;;;;21.75;36.50;100142.50;4345921;32;34469;-77
2022/07/12 12:46:55;;;;;;;1.83;0.37;;;;;;;22.80;35.24;100143.56;4349272;32;34679;-79
2022/07/12 12:49:46;;;;;;;0.88;0.30;;;;;;;23.31;33.84;100128.94;4342701;32;35097;-78
2022/07/12 12:52:47;;;;;;;2.33;0.50;;;;;;;22.81;34.17;100142.34;4343286;32;34702;-81
2022/07/12 12:55:35;;;;;;;1.55;0.30;;;;;;;22.94;33.57;100130.91;4345524;32;34741;-78
2022/07/12 12:58:26;;;;;;;;;;;;;;;23.60;32.67;100126.38;4347197;32;34461;-78
2022/07/12 13:01:13;;;;;;;1.98;0.43;;;;;;;24.49;30.65;100120.56;4342165;32;34410;-81
2022/07/12 13:03:59;;;;;;;2.22;0.70;;;;;;;24.33;30.82;100104.06;4345250;32;34596;-77
2022/07/12 13:06:45;;;;;;;2.03;0.30;;;;;;;25.07;30.23;100102.72;4350945;32;34959;-79
2022/07/12 13:09:32;;;;;;;2.45;0.47;;;;;;;24.69;28.62;100102.22;4343114;32;34888;-76